sensor_id;sensor_type;location;lat;lon;timestamp;P1;durP1;ratioP1;P2;durP2;ratioP2
39540;SDS011;25219;52.244;21.006;2023-05-25T00:01:48;26.80;;;16.33;;
39540;SDS011;25219;52.244;21.006;2023-05-25T00:04:13;26.27;;;15.43;;
39540;SDS011;25219;52.244;21.006;2023-05-25T00:06:40;25.92;;;15.70;;
39540;SDS011;25219;52.244;21.006;2023-05-25T00:09:06;25.33;;;15.93;;
39540;SDS011;25219;52.244;21.006;2023-05-25T00:11:31;28.13;;;15.50;;
39540;SDS011;25219;52.244;21.006;2023-05-25T00:13:56;27.53;;;16.13;;
39540;SDS011;25219;52.244;21.006;2023-05-25T00:16:22;23.97;;;16.77;;
39540;SDS011;25219;52.244;21.006;2023-05-25T00:18:47;26.57;;;16.63;;
39540;SDS011;25219;52.244;21.006;2023-05-25T00:21:12;25.75;;;16.42;;
39540;SDS011;25219;52.244;21.006;2023-05-25T00:23:38;29.67;;;17.58;;
39540;SDS011;25219;52.244;21.006;2023-05-25T00:26:03;27.97;;;17.17;;
39540;SDS011;25219;52.244;21.006;2023-05-25T00:28:28;29.53;;;16.37;;
39540;SDS011;25219;52.244;21.006;2023-05-25T00:30:53;27.02;;;16.25;;
39540;SDS011;25219;52.244;21.006;2023-05-25T00:33:19;29.20;;;17.23;;
39540;SDS011;25219;52.244;21.006;2023-05-25T00:35:45;28.17;;;17.93;;
39540;SDS011;25219;52.244;21.006;2023-05-25T00:38:14;35.20;;;18.70;;
39540;SDS011;25219;52.244;21.006;2023-05-25T00:40:40;27.23;;;17.13;;
39540;SDS011;25219;52.244;21.006;2023-05-25T00:43:08;29.75;;;18.17;;
39540;SDS011;25219;52.244;21.006;2023-05-25T00:45:33;32.63;;;16.88;;
39540;SDS011;25219;52.244;21.006;2023-05-25T00:47:59;28.65;;;17.88;;
39540;SDS011;25219;52.244;21.006;2023-05-25T00:50:36;32.72;;;18.67;;
39540;SDS011;25219;52.244;21.006;2023-05-25T00:53:01;31.63;;;18.80;;
39540;SDS011;25219;52.244;21.006;2023-05-25T00:55:26;33.70;;;18.37;;
39540;SDS011;25219;52.244;21.006;2023-05-25T00:57:54;32.35;;;17.75;;
39540;SDS011;25219;52.244;21.006;2023-05-25T01:00:20;33.30;;;18.90;;
39540;SDS011;25219;52.244;21.006;2023-05-25T01:02:45;30.00;;;18.10;;
39540;SDS011;25219;52.244;21.006;2023-05-25T01:05:12;32.97;;;19.67;;
39540;SDS011;25219;52.244;21.006;2023-05-25T01:07:38;28.95;;;18.17;;
39540;SDS011;25219;52.244;21.006;2023-05-25T01:10:06;34.72;;;19.35;;
39540;SDS011;25219;52.244;21.006;2023-05-25T01:12:34;31.00;;;19.13;;
39540;SDS011;25219;52.244;21.006;2023-05-25T01:15:00;36.35;;;20.48;;
39540;SDS011;25219;52.244;21.006;2023-05-25T01:17:25;31.92;;;20.25;;
39540;SDS011;25219;52.244;21.006;2023-05-25T01:19:52;36.40;;;20.38;;
39540;SDS011;25219;52.244;21.006;2023-05-25T01:22:24;36.88;;;19.67;;
39540;SDS011;25219;52.244;21.006;2023-05-25T01:24:52;36.88;;;21.35;;
39540;SDS011;25219;52.244;21.006;2023-05-25T01:29:57;40.95;;;21.17;;
39540;SDS011;25219;52.244;21.006;2023-05-25T01:32:23;39.75;;;20.23;;
39540;SDS011;25219;52.244;21.006;2023-05-25T01:34:49;43.63;;;21.85;;
39540;SDS011;25219;52.244;21.006;2023-05-25T01:37:14;46.40;;;22.17;;
39540;SDS011;25219;52.244;21.006;2023-05-25T01:39:41;45.42;;;23.23;;
39540;SDS011;25219;52.244;21.006;2023-05-25T01:42:06;52.42;;;23.02;;
39540;SDS011;25219;52.244;21.006;2023-05-25T01:44:31;44.97;;;22.37;;
39540;SDS011;25219;52.244;21.006;2023-05-25T01:47:07;45.28;;;22.65;;
39540;SDS011;25219;52.244;21.006;2023-05-25T01:50:17;49.58;;;23.45;;
39540;SDS011;25219;52.244;21.006;2023-05-25T01:52:24;50.42;;;23.38;;
39540;SDS011;25219;52.244;21.006;2023-05-25T01:54:52;54.08;;;23.25;;
39540;SDS011;25219;52.244;21.006;2023-05-25T01:57:17;53.25;;;23.58;;
39540;SDS011;25219;52.244;21.006;2023-05-25T01:59:44;47.10;;;23.50;;
39540;SDS011;25219;52.244;21.006;2023-05-25T02:02:11;44.83;;;22.88;;
39540;SDS011;25219;52.244;21.006;2023-05-25T02:04:36;47.97;;;23.75;;
39540;SDS011;25219;52.244;21.006;2023-05-25T02:07:05;47.07;;;23.27;;
39540;SDS011;25219;52.244;21.006;2023-05-25T02:09:30;38.17;;;22.67;;
39540;SDS011;25219;52.244;21.006;2023-05-25T02:11:55;44.13;;;23.43;;
39540;SDS011;25219;52.244;21.006;2023-05-25T02:14:20;51.30;;;22.47;;
39540;SDS011;25219;52.244;21.006;2023-05-25T02:16:46;46.70;;;22.23;;
39540;SDS011;25219;52.244;21.006;2023-05-25T02:19:11;40.50;;;21.47;;
39540;SDS011;25219;52.244;21.006;2023-05-25T02:21:38;40.50;;;22.30;;
39540;SDS011;25219;52.244;21.006;2023-05-25T02:24:04;43.42;;;23.00;;
39540;SDS011;25219;52.244;21.006;2023-05-25T02:26:30;46.42;;;22.00;;
39540;SDS011;25219;52.244;21.006;2023-05-25T02:28:55;40.67;;;22.03;;
39540;SDS011;25219;52.244;21.006;2023-05-25T02:31:20;38.40;;;22.83;;
39540;SDS011;25219;52.244;21.006;2023-05-25T02:33:46;38.03;;;22.60;;
39540;SDS011;25219;52.244;21.006;2023-05-25T02:36:11;39.70;;;22.52;;
39540;SDS011;25219;52.244;21.006;2023-05-25T02:38:36;39.92;;;21.30;;
39540;SDS011;25219;52.244;21.006;2023-05-25T02:41:01;38.83;;;22.77;;
39540;SDS011;25219;52.244;21.006;2023-05-25T02:43:27;40.23;;;21.97;;
39540;SDS011;25219;52.244;21.006;2023-05-25T02:45:52;39.90;;;21.17;;
39540;SDS011;25219;52.244;21.006;2023-05-25T02:48:17;39.53;;;21.00;;
39540;SDS011;25219;52.244;21.006;2023-05-25T02:50:42;38.23;;;19.63;;
39540;SDS011;25219;52.244;21.006;2023-05-25T02:53:07;40.03;;;21.93;;
39540;SDS011;25219;52.244;21.006;2023-05-25T02:55:33;41.13;;;21.97;;
39540;SDS011;25219;52.244;21.006;2023-05-25T02:57:58;41.20;;;21.67;;
39540;SDS011;25219;52.244;21.006;2023-05-25T03:00:24;36.15;;;20.55;;
39540;SDS011;25219;52.244;21.006;2023-05-25T03:02:49;37.60;;;20.63;;
39540;SDS011;25219;52.244;21.006;2023-05-25T03:05:15;39.67;;;21.87;;
39540;SDS011;25219;52.244;21.006;2023-05-25T03:07:41;33.35;;;19.25;;
39540;SDS011;25219;52.244;21.006;2023-05-25T03:10:07;34.03;;;20.98;;
39540;SDS011;25219;52.244;21.006;2023-05-25T03:12:32;36.53;;;21.80;;
39540;SDS011;25219;52.244;21.006;2023-05-25T03:14:57;36.30;;;20.80;;
39540;SDS011;25219;52.244;21.006;2023-05-25T03:17:23;37.30;;;21.70;;
39540;SDS011;25219;52.244;21.006;2023-05-25T03:19:48;40.23;;;22.83;;
39540;SDS011;25219;52.244;21.006;2023-05-25T03:22:13;39.63;;;21.40;;
39540;SDS011;25219;52.244;21.006;2023-05-25T03:24:38;31.70;;;19.63;;
39540;SDS011;25219;52.244;21.006;2023-05-25T03:27:05;36.60;;;20.52;;
39540;SDS011;25219;52.244;21.006;2023-05-25T03:29:30;38.90;;;20.80;;
39540;SDS011;25219;52.244;21.006;2023-05-25T03:31:56;35.63;;;20.53;;
39540;SDS011;25219;52.244;21.006;2023-05-25T03:34:21;39.57;;;21.33;;
39540;SDS011;25219;52.244;21.006;2023-05-25T03:36:48;36.65;;;21.20;;
39540;SDS011;25219;52.244;21.006;2023-05-25T03:39:13;41.97;;;21.80;;
39540;SDS011;25219;52.244;21.006;2023-05-25T03:41:39;41.47;;;21.43;;
39540;SDS011;25219;52.244;21.006;2023-05-25T03:44:04;39.42;;;21.67;;
39540;SDS011;25219;52.244;21.006;2023-05-25T03:46:29;33.00;;;20.77;;
39540;SDS011;25219;52.244;21.006;2023-05-25T03:48:54;36.10;;;21.97;;
39540;SDS011;25219;52.244;21.006;2023-05-25T03:51:20;34.13;;;20.90;;
39540;SDS011;25219;52.244;21.006;2023-05-25T03:53:45;37.80;;;21.53;;
39540;SDS011;25219;52.244;21.006;2023-05-25T03:56:10;42.60;;;21.47;;
39540;SDS011;25219;52.244;21.006;2023-05-25T03:58:35;37.57;;;21.20;;
39540;SDS011;25219;52.244;21.006;2023-05-25T04:01:00;36.40;;;22.10;;
39540;SDS011;25219;52.244;21.006;2023-05-25T04:03:26;33.27;;;21.10;;
39540;SDS011;25219;52.244;21.006;2023-05-25T04:05:51;37.20;;;21.42;;
39540;SDS011;25219;52.244;21.006;2023-05-25T04:08:16;34.65;;;19.65;;
39540;SDS011;25219;52.244;21.006;2023-05-25T04:10:44;38.35;;;21.38;;
39540;SDS011;25219;52.244;21.006;2023-05-25T04:13:09;36.53;;;20.75;;
39540;SDS011;25219;52.244;21.006;2023-05-25T04:15:35;31.10;;;19.27;;
39540;SDS011;25219;52.244;21.006;2023-05-25T04:18:00;36.22;;;21.58;;
39540;SDS011;25219;52.244;21.006;2023-05-25T04:20:26;38.88;;;21.15;;
39540;SDS011;25219;52.244;21.006;2023-05-25T04:22:52;39.10;;;20.97;;
39540;SDS011;25219;52.244;21.006;2023-05-25T04:25:17;36.92;;;19.85;;
39540;SDS011;25219;52.244;21.006;2023-05-25T04:27:43;32.10;;;19.52;;
39540;SDS011;25219;52.244;21.006;2023-05-25T04:30:10;35.42;;;19.52;;
39540;SDS011;25219;52.244;21.006;2023-05-25T04:32:35;36.20;;;20.17;;
39540;SDS011;25219;52.244;21.006;2023-05-25T04:35:01;32.87;;;20.13;;
39540;SDS011;25219;52.244;21.006;2023-05-25T04:37:27;32.22;;;19.67;;
39540;SDS011;25219;52.244;21.006;2023-05-25T04:39:53;37.97;;;20.83;;
39540;SDS011;25219;52.244;21.006;2023-05-25T04:42:18;50.63;;;21.37;;
39540;SDS011;25219;52.244;21.006;2023-05-25T04:44:43;35.63;;;19.90;;
39540;SDS011;25219;52.244;21.006;2023-05-25T04:47:08;31.73;;;20.40;;
39540;SDS011;25219;52.244;21.006;2023-05-25T04:49:34;33.47;;;19.90;;
39540;SDS011;25219;52.244;21.006;2023-05-25T04:51:59;39.88;;;21.83;;
39540;SDS011;25219;52.244;21.006;2023-05-25T04:54:25;40.27;;;20.77;;
39540;SDS011;25219;52.244;21.006;2023-05-25T04:56:50;35.40;;;20.75;;
39540;SDS011;25219;52.244;21.006;2023-05-25T04:59:15;37.33;;;20.67;;
39540;SDS011;25219;52.244;21.006;2023-05-25T05:01:40;32.67;;;20.93;;
39540;SDS011;25219;52.244;21.006;2023-05-25T05:04:06;41.72;;;20.23;;
39540;SDS011;25219;52.244;21.006;2023-05-25T05:06:32;37.53;;;21.35;;
39540;SDS011;25219;52.244;21.006;2023-05-25T05:08:57;36.17;;;20.13;;
39540;SDS011;25219;52.244;21.006;2023-05-25T05:11:22;33.20;;;20.63;;
39540;SDS011;25219;52.244;21.006;2023-05-25T05:13:47;36.65;;;20.35;;
39540;SDS011;25219;52.244;21.006;2023-05-25T05:16:13;35.88;;;21.23;;
39540;SDS011;25219;52.244;21.006;2023-05-25T05:18:38;30.23;;;19.80;;
39540;SDS011;25219;52.244;21.006;2023-05-25T05:21:03;39.33;;;20.43;;
39540;SDS011;25219;52.244;21.006;2023-05-25T05:23:28;37.03;;;21.20;;
39540;SDS011;25219;52.244;21.006;2023-05-25T05:25:54;32.53;;;19.87;;
39540;SDS011;25219;52.244;21.006;2023-05-25T05:28:19;36.77;;;20.23;;
39540;SDS011;25219;52.244;21.006;2023-05-25T05:30:44;38.17;;;19.88;;
39540;SDS011;25219;52.244;21.006;2023-05-25T05:33:11;33.95;;;19.98;;
39540;SDS011;25219;52.244;21.006;2023-05-25T05:35:36;33.67;;;20.07;;
39540;SDS011;25219;52.244;21.006;2023-05-25T05:38:01;37.50;;;21.53;;
39540;SDS011;25219;52.244;21.006;2023-05-25T05:40:26;37.17;;;21.73;;
39540;SDS011;25219;52.244;21.006;2023-05-25T05:42:52;30.63;;;18.40;;
39540;SDS011;25219;52.244;21.006;2023-05-25T05:45:17;35.43;;;20.40;;
39540;SDS011;25219;52.244;21.006;2023-05-25T05:47:42;36.00;;;20.70;;
39540;SDS011;25219;52.244;21.006;2023-05-25T05:50:07;37.40;;;21.53;;
39540;SDS011;25219;52.244;21.006;2023-05-25T05:52:33;32.05;;;20.40;;
39540;SDS011;25219;52.244;21.006;2023-05-25T05:54:58;38.67;;;20.87;;
39540;SDS011;25219;52.244;21.006;2023-05-25T05:57:23;34.27;;;19.87;;
39540;SDS011;25219;52.244;21.006;2023-05-25T05:59:48;34.20;;;21.73;;
39540;SDS011;25219;52.244;21.006;2023-05-25T06:02:13;42.50;;;21.70;;
39540;SDS011;25219;52.244;21.006;2023-05-25T06:04:39;33.03;;;20.83;;
39540;SDS011;25219;52.244;21.006;2023-05-25T06:07:04;34.30;;;20.53;;
39540;SDS011;25219;52.244;21.006;2023-05-25T06:09:29;33.30;;;19.73;;
39540;SDS011;25219;52.244;21.006;2023-05-25T06:11:54;32.60;;;19.57;;
39540;SDS011;25219;52.244;21.006;2023-05-25T06:14:20;35.60;;;21.33;;
39540;SDS011;25219;52.244;21.006;2023-05-25T06:16:45;38.10;;;20.87;;
39540;SDS011;25219;52.244;21.006;2023-05-25T06:19:10;37.90;;;20.10;;
39540;SDS011;25219;52.244;21.006;2023-05-25T06:21:35;31.10;;;19.40;;
39540;SDS011;25219;52.244;21.006;2023-05-25T06:24:01;32.90;;;19.67;;
39540;SDS011;25219;52.244;21.006;2023-05-25T06:26:27;32.33;;;18.70;;
39540;SDS011;25219;52.244;21.006;2023-05-25T06:28:52;33.93;;;20.80;;
39540;SDS011;25219;52.244;21.006;2023-05-25T06:31:17;30.77;;;18.20;;
39540;SDS011;25219;52.244;21.006;2023-05-25T06:33:43;32.10;;;20.40;;
39540;SDS011;25219;52.244;21.006;2023-05-25T06:36:08;36.33;;;22.00;;
39540;SDS011;25219;52.244;21.006;2023-05-25T06:38:34;35.92;;;18.65;;
39540;SDS011;25219;52.244;21.006;2023-05-25T06:41:00;37.58;;;20.75;;
39540;SDS011;25219;52.244;21.006;2023-05-25T06:43:27;30.45;;;19.38;;
39540;SDS011;25219;52.244;21.006;2023-05-25T06:45:52;30.75;;;19.42;;
39540;SDS011;25219;52.244;21.006;2023-05-25T06:48:18;32.87;;;19.37;;
39540;SDS011;25219;52.244;21.006;2023-05-25T06:50:43;31.13;;;19.03;;
39540;SDS011;25219;52.244;21.006;2023-05-25T06:53:10;34.00;;;18.95;;
39540;SDS011;25219;52.244;21.006;2023-05-25T06:55:35;30.92;;;18.52;;
39540;SDS011;25219;52.244;21.006;2023-05-25T06:58:00;37.17;;;19.73;;
39540;SDS011;25219;52.244;21.006;2023-05-25T07:00:25;32.40;;;20.27;;
39540;SDS011;25219;52.244;21.006;2023-05-25T07:02:51;34.63;;;20.17;;
39540;SDS011;25219;52.244;21.006;2023-05-25T07:05:16;29.97;;;18.67;;
39540;SDS011;25219;52.244;21.006;2023-05-25T07:07:41;32.00;;;20.10;;
39540;SDS011;25219;52.244;21.006;2023-05-25T07:10:07;34.33;;;20.30;;
39540;SDS011;25219;52.244;21.006;2023-05-25T07:12:32;44.85;;;28.13;;
39540;SDS011;25219;52.244;21.006;2023-05-25T07:14:57;50.90;;;32.87;;
39540;SDS011;25219;52.244;21.006;2023-05-25T07:17:23;35.37;;;20.97;;
39540;SDS011;25219;52.244;21.006;2023-05-25T07:19:48;42.43;;;20.43;;
39540;SDS011;25219;52.244;21.006;2023-05-25T07:22:14;35.78;;;21.48;;
39540;SDS011;25219;52.244;21.006;2023-05-25T07:24:41;31.92;;;20.13;;
39540;SDS011;25219;52.244;21.006;2023-05-25T07:27:06;30.88;;;19.48;;
39540;SDS011;25219;52.244;21.006;2023-05-25T07:29:32;28.92;;;19.42;;
39540;SDS011;25219;52.244;21.006;2023-05-25T07:31:57;32.00;;;20.00;;
39540;SDS011;25219;52.244;21.006;2023-05-25T07:34:22;36.23;;;20.23;;
39540;SDS011;25219;52.244;21.006;2023-05-25T07:36:47;35.80;;;20.77;;
39540;SDS011;25219;52.244;21.006;2023-05-25T07:39:13;29.07;;;19.67;;
39540;SDS011;25219;52.244;21.006;2023-05-25T07:41:38;36.35;;;20.23;;
39540;SDS011;25219;52.244;21.006;2023-05-25T07:44:03;30.70;;;20.10;;
39540;SDS011;25219;52.244;21.006;2023-05-25T07:46:29;32.03;;;18.88;;
39540;SDS011;25219;52.244;21.006;2023-05-25T07:48:54;32.05;;;19.25;;
39540;SDS011;25219;52.244;21.006;2023-05-25T07:51:22;33.90;;;23.02;;
39540;SDS011;25219;52.244;21.006;2023-05-25T07:53:50;36.63;;;23.38;;
39540;SDS011;25219;52.244;21.006;2023-05-25T07:56:16;30.85;;;19.60;;
39540;SDS011;25219;52.244;21.006;2023-05-25T07:58:41;31.27;;;19.05;;
39540;SDS011;25219;52.244;21.006;2023-05-25T08:01:06;31.43;;;19.20;;
39540;SDS011;25219;52.244;21.006;2023-05-25T08:03:32;37.27;;;20.07;;
39540;SDS011;25219;52.244;21.006;2023-05-25T08:05:57;32.23;;;18.90;;
39540;SDS011;25219;52.244;21.006;2023-05-25T08:08:22;28.37;;;18.30;;
39540;SDS011;25219;52.244;21.006;2023-05-25T08:10:48;32.75;;;19.85;;
39540;SDS011;25219;52.244;21.006;2023-05-25T08:13:13;33.58;;;18.98;;
39540;SDS011;25219;52.244;21.006;2023-05-25T08:15:39;30.38;;;18.63;;
39540;SDS011;25219;52.244;21.006;2023-05-25T08:18:07;32.83;;;18.52;;
39540;SDS011;25219;52.244;21.006;2023-05-25T08:20:32;33.28;;;18.45;;
39540;SDS011;25219;52.244;21.006;2023-05-25T08:22:57;27.67;;;18.70;;
39540;SDS011;25219;52.244;21.006;2023-05-25T08:25:23;25.30;;;18.58;;
39540;SDS011;25219;52.244;21.006;2023-05-25T08:27:48;28.88;;;18.48;;
39540;SDS011;25219;52.244;21.006;2023-05-25T08:30:13;24.10;;;18.43;;
39540;SDS011;25219;52.244;21.006;2023-05-25T08:32:39;27.07;;;19.00;;
39540;SDS011;25219;52.244;21.006;2023-05-25T08:35:04;25.37;;;17.73;;
39540;SDS011;25219;52.244;21.006;2023-05-25T08:37:32;30.10;;;18.65;;
39540;SDS011;25219;52.244;21.006;2023-05-25T08:39:58;29.27;;;18.60;;
39540;SDS011;25219;52.244;21.006;2023-05-25T08:42:26;28.75;;;19.30;;
39540;SDS011;25219;52.244;21.006;2023-05-25T08:44:51;27.93;;;17.03;;
39540;SDS011;25219;52.244;21.006;2023-05-25T08:47:16;24.27;;;17.07;;
39540;SDS011;25219;52.244;21.006;2023-05-25T08:49:44;31.98;;;17.88;;
39540;SDS011;25219;52.244;21.006;2023-05-25T08:52:10;25.83;;;17.58;;
39540;SDS011;25219;52.244;21.006;2023-05-25T08:54:37;26.85;;;17.00;;
39540;SDS011;25219;52.244;21.006;2023-05-25T09:04:46;21.65;;;15.48;;
39540;SDS011;25219;52.244;21.006;2023-05-25T09:07:11;22.80;;;14.73;;
39540;SDS011;25219;52.244;21.006;2023-05-25T09:09:37;21.05;;;14.50;;
39540;SDS011;25219;52.244;21.006;2023-05-25T09:12:03;21.35;;;14.40;;
39540;SDS011;25219;52.244;21.006;2023-05-25T09:14:29;25.70;;;14.50;;
39540;SDS011;25219;52.244;21.006;2023-05-25T09:16:54;20.67;;;15.68;;
39540;SDS011;25219;52.244;21.006;2023-05-25T09:19:20;21.60;;;14.90;;
39540;SDS011;25219;52.244;21.006;2023-05-25T09:21:45;23.03;;;15.07;;
39540;SDS011;25219;52.244;21.006;2023-05-25T09:24:10;26.13;;;15.83;;
39540;SDS011;25219;52.244;21.006;2023-05-25T09:26:36;25.95;;;15.35;;
39540;SDS011;25219;52.244;21.006;2023-05-25T09:29:01;21.13;;;14.00;;
39540;SDS011;25219;52.244;21.006;2023-05-25T09:31:27;21.02;;;15.75;;
39540;SDS011;25219;52.244;21.006;2023-05-25T09:33:52;21.70;;;15.30;;
39540;SDS011;25219;52.244;21.006;2023-05-25T09:36:23;20.73;;;14.35;;
39540;SDS011;25219;52.244;21.006;2023-05-25T09:38:51;23.67;;;15.05;;
39540;SDS011;25219;52.244;21.006;2023-05-25T09:41:16;22.25;;;14.98;;
39540;SDS011;25219;52.244;21.006;2023-05-25T09:43:43;23.77;;;15.35;;
39540;SDS011;25219;52.244;21.006;2023-05-25T09:46:08;20.42;;;16.33;;
39540;SDS011;25219;52.244;21.006;2023-05-25T09:48:33;18.97;;;13.83;;
39540;SDS011;25219;52.244;21.006;2023-05-25T09:50:59;23.77;;;15.88;;
39540;SDS011;25219;52.244;21.006;2023-05-25T09:53:26;44.70;;;29.90;;
39540;SDS011;25219;52.244;21.006;2023-05-25T09:55:52;23.85;;;16.73;;
39540;SDS011;25219;52.244;21.006;2023-05-25T09:58:17;23.92;;;15.23;;
39540;SDS011;25219;52.244;21.006;2023-05-25T10:00:42;27.10;;;16.43;;
39540;SDS011;25219;52.244;21.006;2023-05-25T10:03:07;20.63;;;15.17;;
39540;SDS011;25219;52.244;21.006;2023-05-25T10:05:33;21.95;;;15.93;;
39540;SDS011;25219;52.244;21.006;2023-05-25T10:07:58;25.73;;;15.87;;
39540;SDS011;25219;52.244;21.006;2023-05-25T10:10:25;22.88;;;16.13;;
39540;SDS011;25219;52.244;21.006;2023-05-25T10:12:51;24.40;;;15.43;;
39540;SDS011;25219;52.244;21.006;2023-05-25T10:15:17;25.08;;;15.45;;
39540;SDS011;25219;52.244;21.006;2023-05-25T10:17:51;24.70;;;15.35;;
39540;SDS011;25219;52.244;21.006;2023-05-25T10:20:16;22.23;;;15.57;;
39540;SDS011;25219;52.244;21.006;2023-05-25T10:27:39;23.35;;;15.63;;
39540;SDS011;25219;52.244;21.006;2023-05-25T10:30:05;31.50;;;16.52;;
39540;SDS011;25219;52.244;21.006;2023-05-25T10:32:31;26.10;;;16.20;;
39540;SDS011;25219;52.244;21.006;2023-05-25T10:34:56;21.95;;;16.25;;
39540;SDS011;25219;52.244;21.006;2023-05-25T10:37:24;24.00;;;15.40;;
39540;SDS011;25219;52.244;21.006;2023-05-25T10:39:50;22.42;;;16.05;;
39540;SDS011;25219;52.244;21.006;2023-05-25T10:42:17;21.63;;;16.25;;
39540;SDS011;25219;52.244;21.006;2023-05-25T10:44:42;23.15;;;15.82;;
39540;SDS011;25219;52.244;21.006;2023-05-25T10:47:07;20.70;;;15.98;;
39540;SDS011;25219;52.244;21.006;2023-05-25T10:49:34;16.25;;;13.32;;
39540;SDS011;25219;52.244;21.006;2023-05-25T10:52:16;20.38;;;12.65;;
39540;SDS011;25219;52.244;21.006;2023-05-25T10:54:41;17.13;;;12.32;;
39540;SDS011;25219;52.244;21.006;2023-05-25T10:57:09;18.65;;;12.77;;
39540;SDS011;25219;52.244;21.006;2023-05-25T10:59:47;21.08;;;14.13;;
39540;SDS011;25219;52.244;21.006;2023-05-25T11:02:13;20.67;;;13.93;;
39540;SDS011;25219;52.244;21.006;2023-05-25T11:04:39;17.90;;;12.95;;
39540;SDS011;25219;52.244;21.006;2023-05-25T11:07:05;19.70;;;14.37;;
39540;SDS011;25219;52.244;21.006;2023-05-25T11:09:32;19.25;;;14.07;;
39540;SDS011;25219;52.244;21.006;2023-05-25T11:12:00;20.73;;;13.15;;
39540;SDS011;25219;52.244;21.006;2023-05-25T11:14:31;24.20;;;13.93;;
39540;SDS011;25219;52.244;21.006;2023-05-25T11:19:40;22.83;;;14.23;;
39540;SDS011;25219;52.244;21.006;2023-05-25T11:24:52;17.00;;;12.07;;
39540;SDS011;25219;52.244;21.006;2023-05-25T11:27:23;17.92;;;12.90;;
39540;SDS011;25219;52.244;21.006;2023-05-25T11:29:49;18.00;;;13.40;;
39540;SDS011;25219;52.244;21.006;2023-05-25T11:32:15;34.55;;;12.98;;
39540;SDS011;25219;52.244;21.006;2023-05-25T11:34:40;25.85;;;12.90;;
39540;SDS011;25219;52.244;21.006;2023-05-25T11:37:10;17.60;;;11.95;;
39540;SDS011;25219;52.244;21.006;2023-05-25T11:39:36;20.63;;;12.07;;
39540;SDS011;25219;52.244;21.006;2023-05-25T11:42:03;19.45;;;10.88;;
39540;SDS011;25219;52.244;21.006;2023-05-25T11:44:28;19.25;;;12.10;;
39540;SDS011;25219;52.244;21.006;2023-05-25T11:46:55;20.27;;;11.73;;
39540;SDS011;25219;52.244;21.006;2023-05-25T11:49:25;22.40;;;12.40;;
39540;SDS011;25219;52.244;21.006;2023-05-25T11:51:52;18.63;;;11.63;;
39540;SDS011;25219;52.244;21.006;2023-05-25T11:54:21;19.23;;;12.65;;
39540;SDS011;25219;52.244;21.006;2023-05-25T11:56:46;20.77;;;12.02;;
39540;SDS011;25219;52.244;21.006;2023-05-25T11:59:12;14.83;;;10.60;;
39540;SDS011;25219;52.244;21.006;2023-05-25T12:01:37;15.87;;;10.50;;
39540;SDS011;25219;52.244;21.006;2023-05-25T12:04:07;18.95;;;11.60;;
39540;SDS011;25219;52.244;21.006;2023-05-25T12:06:32;19.23;;;11.10;;
39540;SDS011;25219;52.244;21.006;2023-05-25T12:08:58;16.73;;;10.88;;
39540;SDS011;25219;52.244;21.006;2023-05-25T12:11:31;15.60;;;10.25;;
39540;SDS011;25219;52.244;21.006;2023-05-25T12:14:04;14.38;;;10.57;;
39540;SDS011;25219;52.244;21.006;2023-05-25T12:16:29;18.83;;;10.40;;
39540;SDS011;25219;52.244;21.006;2023-05-25T12:18:55;17.23;;;10.85;;
39540;SDS011;25219;52.244;21.006;2023-05-25T12:21:21;18.40;;;10.02;;
39540;SDS011;25219;52.244;21.006;2023-05-25T12:23:47;19.48;;;10.30;;
39540;SDS011;25219;52.244;21.006;2023-05-25T12:26:13;16.13;;;10.50;;
39540;SDS011;25219;52.244;21.006;2023-05-25T12:28:39;12.95;;;9.75;;
39540;SDS011;25219;52.244;21.006;2023-05-25T12:31:20;16.67;;;10.02;;
39540;SDS011;25219;52.244;21.006;2023-05-25T12:34:00;15.27;;;9.43;;
39540;SDS011;25219;52.244;21.006;2023-05-25T12:36:37;16.45;;;10.07;;
39540;SDS011;25219;52.244;21.006;2023-05-25T12:39:03;12.02;;;9.38;;
39540;SDS011;25219;52.244;21.006;2023-05-25T12:41:29;11.05;;;9.48;;
39540;SDS011;25219;52.244;21.006;2023-05-25T12:43:54;17.30;;;10.03;;
39540;SDS011;25219;52.244;21.006;2023-05-25T12:46:24;16.20;;;9.93;;
39540;SDS011;25219;52.244;21.006;2023-05-25T12:48:49;14.82;;;9.65;;
39540;SDS011;25219;52.244;21.006;2023-05-25T12:51:15;12.15;;;9.43;;
39540;SDS011;25219;52.244;21.006;2023-05-25T12:53:49;13.50;;;9.02;;
39540;SDS011;25219;52.244;21.006;2023-05-25T12:56:15;12.52;;;8.77;;
39540;SDS011;25219;52.244;21.006;2023-05-25T12:58:40;14.53;;;9.43;;
39540;SDS011;25219;52.244;21.006;2023-05-25T13:01:08;14.00;;;8.93;;
39540;SDS011;25219;52.244;21.006;2023-05-25T13:03:34;14.60;;;8.95;;
39540;SDS011;25219;52.244;21.006;2023-05-25T13:06:00;13.45;;;8.93;;
39540;SDS011;25219;52.244;21.006;2023-05-25T13:08:26;9.63;;;8.15;;
39540;SDS011;25219;52.244;21.006;2023-05-25T13:10:51;13.73;;;9.47;;
39540;SDS011;25219;52.244;21.006;2023-05-25T13:13:16;11.93;;;9.03;;
39540;SDS011;25219;52.244;21.006;2023-05-25T13:15:41;13.03;;;9.53;;
39540;SDS011;25219;52.244;21.006;2023-05-25T13:18:06;12.67;;;9.77;;
39540;SDS011;25219;52.244;21.006;2023-05-25T13:20:32;11.18;;;9.55;;
39540;SDS011;25219;52.244;21.006;2023-05-25T13:22:57;15.17;;;9.23;;
39540;SDS011;25219;52.244;21.006;2023-05-25T13:25:22;24.53;;;15.50;;
39540;SDS011;25219;52.244;21.006;2023-05-25T13:27:50;10.98;;;8.43;;
39540;SDS011;25219;52.244;21.006;2023-05-25T13:30:16;12.48;;;8.25;;
39540;SDS011;25219;52.244;21.006;2023-05-25T13:32:42;13.60;;;8.20;;
39540;SDS011;25219;52.244;21.006;2023-05-25T13:35:07;10.50;;;8.27;;
39540;SDS011;25219;52.244;21.006;2023-05-25T13:37:33;11.70;;;8.35;;
39540;SDS011;25219;52.244;21.006;2023-05-25T13:40:01;8.60;;;7.73;;
39540;SDS011;25219;52.244;21.006;2023-05-25T13:42:27;9.50;;;7.57;;
39540;SDS011;25219;52.244;21.006;2023-05-25T13:44:52;13.38;;;7.88;;
39540;SDS011;25219;52.244;21.006;2023-05-25T13:47:17;14.50;;;7.73;;
39540;SDS011;25219;52.244;21.006;2023-05-25T13:49:43;12.10;;;7.77;;
39540;SDS011;25219;52.244;21.006;2023-05-25T13:52:08;9.45;;;7.63;;
39540;SDS011;25219;52.244;21.006;2023-05-25T13:54:33;13.40;;;7.63;;
39540;SDS011;25219;52.244;21.006;2023-05-25T13:56:58;8.33;;;6.93;;
39540;SDS011;25219;52.244;21.006;2023-05-25T13:59:23;11.03;;;7.67;;
39540;SDS011;25219;52.244;21.006;2023-05-25T14:01:49;11.80;;;7.63;;
39540;SDS011;25219;52.244;21.006;2023-05-25T14:04:14;10.18;;;7.90;;
39540;SDS011;25219;52.244;21.006;2023-05-25T14:06:40;30.77;;;10.00;;
39540;SDS011;25219;52.244;21.006;2023-05-25T14:09:06;12.05;;;7.95;;
39540;SDS011;25219;52.244;21.006;2023-05-25T14:11:32;16.10;;;8.18;;
39540;SDS011;25219;52.244;21.006;2023-05-25T14:13:57;11.90;;;8.45;;
39540;SDS011;25219;52.244;21.006;2023-05-25T14:16:22;13.00;;;8.60;;
39540;SDS011;25219;52.244;21.006;2023-05-25T14:18:47;11.87;;;7.70;;
39540;SDS011;25219;52.244;21.006;2023-05-25T14:21:12;10.33;;;8.20;;
39540;SDS011;25219;52.244;21.006;2023-05-25T14:23:38;9.35;;;8.38;;
39540;SDS011;25219;52.244;21.006;2023-05-25T14:26:03;10.83;;;8.93;;